首页
METAR-TAF:

METAR-TAF

机场 :

根西岛,

纬度: 49-26N, 经度: 002-36W, 海拔: 102米

当前天气观测

该预报发布于1小时和0分钟前的01:50 UTC
风速20节,风向东转东北,有时为34节阵风
温度 14°C
湿度 94%
气压 1022 hPa
能见度10公里或以上
多云层高于500英尺

METAR: EGJB 270150Z 06020G34KT 9999 BKN005 14/13 Q1022

时间: 03:50 (02:50 UTC)

预报

该预报发布于55分钟前的01:55 UTC
预报有效从27日的 03点(UTC)到 27日的 12点(UTC)
风速22节,风向东转东北,有时为34节阵风
能见度10公里或以上
多云层高于500英尺
短暂存在
从 27日的 03点(UTC)到 27日的 12点(UTC)
能見度: 8000
散云层高于500英尺
几率 30% :
短暂存在
从 27日的 03点(UTC)到 27日的 12点(UTC)
能見度: 4000
多云层高于200英尺
轻雾

TAF: EGJB 270155Z 2703/2712 07022G34KT 9999 BKN005 TEMPO 2703/2712 8000 SCT005 PROB30 TEMPO 2703/2712 4000 BR BKN002

超过4000个机场的气象观测和天气预报(METAR&TAF报告)。

可查询的气象台以黄色和红色小点在地图上表示。

将鼠标移到小点上方,可查看气象台名称。

然后点击查看天气观测和预报。

如需切换地图:点击带黑十字的绿色按钮放大地图;点击带横线的绿色按钮缩小地图;或者点击绿色箭头查看邻近地区的地图。


METAR-TAF: